Terminal Aerodrome Forecast
Issued by NWS Cleveland, OH

Home | Current Version | Previous Version | Graphics & Text | Print | Product List | Glossary On
Versions: 1 2 3 4 5 6 7 8 9 10 11 12 13 14 15 16 17 18
000
FTUS41 KCLE 231100
TAFCAK
TAF
KCAK 231130Z 2312/2412 26010KT P6SM SCT035 BKN050
     FM231600 30014G24KT P6SM VCSH BKN035 OVC050
     FM240000 30010KT P6SM BKN045
     FM240300 30008KT P6SM SCT040=

USA.gov is the U.S. government's official web portal to all federal, state and local government web resources and services.